sensor_id;sensor_type;location;lat;lon;timestamp;temperature;humidity
18225;DHT22;9237;48.590;8.854;2023-02-01T00:02:00;2.50;99.90
18225;DHT22;9237;48.590;8.854;2023-02-01T00:04:27;2.50;99.90
18225;DHT22;9237;48.590;8.854;2023-02-01T00:06:54;2.40;99.90
18225;DHT22;9237;48.590;8.854;2023-02-01T00:09:21;2.50;99.90
18225;DHT22;9237;48.590;8.854;2023-02-01T00:11:49;2.50;99.90
18225;DHT22;9237;48.590;8.854;2023-02-01T00:14:15;2.50;99.90
18225;DHT22;9237;48.590;8.854;2023-02-01T00:16:42;2.40;99.90
18225;DHT22;9237;48.590;8.854;2023-02-01T00:19:11;2.50;99.90
18225;DHT22;9237;48.590;8.854;2023-02-01T00:21:39;2.40;99.90
18225;DHT22;9237;48.590;8.854;2023-02-01T00:24:06;2.40;99.90
18225;DHT22;9237;48.590;8.854;2023-02-01T00:26:35;2.50;99.90
18225;DHT22;9237;48.590;8.854;2023-02-01T00:29:06;2.50;99.90
18225;DHT22;9237;48.590;8.854;2023-02-01T00:31:34;2.50;99.90
18225;DHT22;9237;48.590;8.854;2023-02-01T00:34:00;2.40;99.90
18225;DHT22;9237;48.590;8.854;2023-02-01T00:36:27;2.40;99.90
18225;DHT22;9237;48.590;8.854;2023-02-01T00:38:55;2.40;99.90
18225;DHT22;9237;48.590;8.854;2023-02-01T00:41:22;2.50;99.90
18225;DHT22;9237;48.590;8.854;2023-02-01T00:43:49;2.40;99.90
18225;DHT22;9237;48.590;8.854;2023-02-01T00:46:19;2.40;99.90
18225;DHT22;9237;48.590;8.854;2023-02-01T00:48:47;2.40;99.90
18225;DHT22;9237;48.590;8.854;2023-02-01T00:51:16;2.40;99.90
18225;DHT22;9237;48.590;8.854;2023-02-01T00:53:42;2.40;99.90
18225;DHT22;9237;48.590;8.854;2023-02-01T00:56:10;2.40;99.90
18225;DHT22;9237;48.590;8.854;2023-02-01T00:58:37;2.30;99.90
18225;DHT22;9237;48.590;8.854;2023-02-01T01:01:06;2.30;99.90
18225;DHT22;9237;48.590;8.854;2023-02-01T01:03:36;2.30;99.90
18225;DHT22;9237;48.590;8.854;2023-02-01T01:06:05;2.30;99.90
18225;DHT22;9237;48.590;8.854;2023-02-01T01:08:32;2.30;99.90
18225;DHT22;9237;48.590;8.854;2023-02-01T01:10:59;2.30;99.90
18225;DHT22;9237;48.590;8.854;2023-02-01T01:13:25;2.20;99.90
18225;DHT22;9237;48.590;8.854;2023-02-01T01:15:52;2.30;99.90
18225;DHT22;9237;48.590;8.854;2023-02-01T01:18:19;2.30;99.90
18225;DHT22;9237;48.590;8.854;2023-02-01T01:20:47;2.30;99.90
18225;DHT22;9237;48.590;8.854;2023-02-01T01:23:14;2.30;99.90
18225;DHT22;9237;48.590;8.854;2023-02-01T01:25:41;2.40;99.90
18225;DHT22;9237;48.590;8.854;2023-02-01T01:28:08;2.40;99.90
18225;DHT22;9237;48.590;8.854;2023-02-01T01:30:35;2.40;99.90
18225;DHT22;9237;48.590;8.854;2023-02-01T01:33:02;2.40;99.90
18225;DHT22;9237;48.590;8.854;2023-02-01T01:35:30;2.40;99.90
18225;DHT22;9237;48.590;8.854;2023-02-01T01:37:58;2.50;99.90
18225;DHT22;9237;48.590;8.854;2023-02-01T01:40:26;2.40;99.90
18225;DHT22;9237;48.590;8.854;2023-02-01T01:42:53;2.40;99.90
18225;DHT22;9237;48.590;8.854;2023-02-01T01:45:24;2.40;99.90
18225;DHT22;9237;48.590;8.854;2023-02-01T01:47:54;2.40;99.90
18225;DHT22;9237;48.590;8.854;2023-02-01T01:50:24;2.40;99.90
18225;DHT22;9237;48.590;8.854;2023-02-01T01:52:55;2.40;99.90
18225;DHT22;9237;48.590;8.854;2023-02-01T01:55:25;2.40;99.90
18225;DHT22;9237;48.590;8.854;2023-02-01T01:57:57;2.50;99.90
18225;DHT22;9237;48.590;8.854;2023-02-01T02:00:24;2.40;99.90
18225;DHT22;9237;48.590;8.854;2023-02-01T02:02:57;2.40;99.90
18225;DHT22;9237;48.590;8.854;2023-02-01T02:05:25;2.50;99.90
18225;DHT22;9237;48.590;8.854;2023-02-01T02:07:56;2.50;99.90
18225;DHT22;9237;48.590;8.854;2023-02-01T02:10:26;2.50;99.90
18225;DHT22;9237;48.590;8.854;2023-02-01T02:13:13;2.50;99.90
18225;DHT22;9237;48.590;8.854;2023-02-01T02:15:45;2.50;99.90
18225;DHT22;9237;48.590;8.854;2023-02-01T02:18:18;2.50;99.90
18225;DHT22;9237;48.590;8.854;2023-02-01T02:21:10;2.60;99.90
18225;DHT22;9237;48.590;8.854;2023-02-01T02:24:01;2.50;99.90
18225;DHT22;9237;48.590;8.854;2023-02-01T02:27:00;2.50;99.90
18225;DHT22;9237;48.590;8.854;2023-02-01T02:30:11;2.50;99.90
18225;DHT22;9237;48.590;8.854;2023-02-01T02:35:40;2.50;99.90
18225;DHT22;9237;48.590;8.854;2023-02-01T02:38:17;2.80;99.90
18225;DHT22;9237;48.590;8.854;2023-02-01T02:40:54;2.50;99.90
18225;DHT22;9237;48.590;8.854;2023-02-01T02:43:26;2.50;99.90
18225;DHT22;9237;48.590;8.854;2023-02-01T02:46:21;2.50;99.90
18225;DHT22;9237;48.590;8.854;2023-02-01T02:49:11;2.50;99.90
18225;DHT22;9237;48.590;8.854;2023-02-01T02:51:43;2.60;99.90
18225;DHT22;9237;48.590;8.854;2023-02-01T02:54:31;2.60;99.90
18225;DHT22;9237;48.590;8.854;2023-02-01T02:57:15;2.60;99.90
18225;DHT22;9237;48.590;8.854;2023-02-01T03:00:03;2.60;99.90
18225;DHT22;9237;48.590;8.854;2023-02-01T03:02:48;2.60;99.90
18225;DHT22;9237;48.590;8.854;2023-02-01T03:05:33;2.60;99.90
18225;DHT22;9237;48.590;8.854;2023-02-01T03:08:04;2.60;99.90
18225;DHT22;9237;48.590;8.854;2023-02-01T03:10:40;2.60;99.90
18225;DHT22;9237;48.590;8.854;2023-02-01T03:13:11;2.60;99.90
18225;DHT22;9237;48.590;8.854;2023-02-01T03:15:42;2.60;99.90
18225;DHT22;9237;48.590;8.854;2023-02-01T03:18:14;2.60;99.90
18225;DHT22;9237;48.590;8.854;2023-02-01T03:20:48;2.60;99.90
18225;DHT22;9237;48.590;8.854;2023-02-01T03:23:19;2.60;99.90
18225;DHT22;9237;48.590;8.854;2023-02-01T03:25:48;2.60;99.90
18225;DHT22;9237;48.590;8.854;2023-02-01T03:28:19;2.60;99.90
18225;DHT22;9237;48.590;8.854;2023-02-01T03:30:49;2.70;99.90
18225;DHT22;9237;48.590;8.854;2023-02-01T03:33:18;2.70;99.90
18225;DHT22;9237;48.590;8.854;2023-02-01T03:35:57;2.70;99.90
18225;DHT22;9237;48.590;8.854;2023-02-01T03:38:30;2.80;99.90
18225;DHT22;9237;48.590;8.854;2023-02-01T03:41:03;2.90;99.90
18225;DHT22;9237;48.590;8.854;2023-02-01T03:43:37;2.80;99.90
18225;DHT22;9237;48.590;8.854;2023-02-01T03:46:10;2.80;99.90
18225;DHT22;9237;48.590;8.854;2023-02-01T03:48:39;2.80;99.90
18225;DHT22;9237;48.590;8.854;2023-02-01T03:51:08;2.90;99.90
18225;DHT22;9237;48.590;8.854;2023-02-01T03:53:38;2.90;99.90
18225;DHT22;9237;48.590;8.854;2023-02-01T03:56:07;2.90;99.90
18225;DHT22;9237;48.590;8.854;2023-02-01T03:58:37;2.90;99.90
18225;DHT22;9237;48.590;8.854;2023-02-01T04:01:04;2.90;99.90
18225;DHT22;9237;48.590;8.854;2023-02-01T04:03:31;3.00;99.90
18225;DHT22;9237;48.590;8.854;2023-02-01T04:05:57;3.00;99.90
18225;DHT22;9237;48.590;8.854;2023-02-01T04:08:24;3.00;99.90
18225;DHT22;9237;48.590;8.854;2023-02-01T04:10:52;3.10;99.90
18225;DHT22;9237;48.590;8.854;2023-02-01T04:13:19;3.00;99.90
18225;DHT22;9237;48.590;8.854;2023-02-01T04:15:47;3.00;99.90
18225;DHT22;9237;48.590;8.854;2023-02-01T04:18:15;3.00;99.90
18225;DHT22;9237;48.590;8.854;2023-02-01T04:20:43;2.90;99.90
18225;DHT22;9237;48.590;8.854;2023-02-01T04:23:10;2.90;99.90
18225;DHT22;9237;48.590;8.854;2023-02-01T04:25:37;2.90;99.90
18225;DHT22;9237;48.590;8.854;2023-02-01T04:28:05;2.90;99.90
18225;DHT22;9237;48.590;8.854;2023-02-01T04:30:32;2.90;99.90
18225;DHT22;9237;48.590;8.854;2023-02-01T04:32:59;2.90;99.90
18225;DHT22;9237;48.590;8.854;2023-02-01T04:35:26;2.90;99.90
18225;DHT22;9237;48.590;8.854;2023-02-01T04:37:52;2.90;99.90
18225;DHT22;9237;48.590;8.854;2023-02-01T04:40:19;2.90;99.90
18225;DHT22;9237;48.590;8.854;2023-02-01T04:42:46;2.90;99.90
18225;DHT22;9237;48.590;8.854;2023-02-01T04:45:14;2.90;99.90
18225;DHT22;9237;48.590;8.854;2023-02-01T04:47:41;2.90;99.90
18225;DHT22;9237;48.590;8.854;2023-02-01T04:50:09;2.80;99.90
18225;DHT22;9237;48.590;8.854;2023-02-01T04:52:36;2.80;99.90
18225;DHT22;9237;48.590;8.854;2023-02-01T04:55:03;2.90;99.90
18225;DHT22;9237;48.590;8.854;2023-02-01T04:57:30;2.90;99.90
18225;DHT22;9237;48.590;8.854;2023-02-01T04:59:57;2.90;99.90
18225;DHT22;9237;48.590;8.854;2023-02-01T05:02:25;2.90;99.90
18225;DHT22;9237;48.590;8.854;2023-02-01T05:04:52;2.90;99.90
18225;DHT22;9237;48.590;8.854;2023-02-01T05:07:21;2.90;99.90
18225;DHT22;9237;48.590;8.854;2023-02-01T05:09:48;2.90;99.90
18225;DHT22;9237;48.590;8.854;2023-02-01T05:12:14;2.90;99.90
18225;DHT22;9237;48.590;8.854;2023-02-01T05:14:59;2.90;99.90
18225;DHT22;9237;48.590;8.854;2023-02-01T05:17:27;2.90;99.90
18225;DHT22;9237;48.590;8.854;2023-02-01T05:19:54;2.90;99.90
18225;DHT22;9237;48.590;8.854;2023-02-01T05:22:21;2.90;99.90
18225;DHT22;9237;48.590;8.854;2023-02-01T05:24:48;2.90;99.90
18225;DHT22;9237;48.590;8.854;2023-02-01T05:27:14;2.90;99.90
18225;DHT22;9237;48.590;8.854;2023-02-01T05:29:41;2.90;99.90
18225;DHT22;9237;48.590;8.854;2023-02-01T05:32:09;3.00;99.90
18225;DHT22;9237;48.590;8.854;2023-02-01T05:34:38;3.00;99.90
18225;DHT22;9237;48.590;8.854;2023-02-01T05:37:04;3.00;99.90
18225;DHT22;9237;48.590;8.854;2023-02-01T05:39:31;2.90;99.90
18225;DHT22;9237;48.590;8.854;2023-02-01T05:41:58;2.90;99.90
18225;DHT22;9237;48.590;8.854;2023-02-01T05:44:25;2.90;99.90
18225;DHT22;9237;48.590;8.854;2023-02-01T05:46:51;3.00;99.90
18225;DHT22;9237;48.590;8.854;2023-02-01T05:49:18;3.10;99.90
18225;DHT22;9237;48.590;8.854;2023-02-01T05:51:46;3.10;99.90
18225;DHT22;9237;48.590;8.854;2023-02-01T05:54:13;3.10;99.90
18225;DHT22;9237;48.590;8.854;2023-02-01T05:56:40;3.10;99.90
18225;DHT22;9237;48.590;8.854;2023-02-01T05:59:07;3.10;99.90
18225;DHT22;9237;48.590;8.854;2023-02-01T06:01:34;3.00;99.90
18225;DHT22;9237;48.590;8.854;2023-02-01T06:04:00;3.00;99.90
18225;DHT22;9237;48.590;8.854;2023-02-01T06:06:27;3.00;99.90
18225;DHT22;9237;48.590;8.854;2023-02-01T06:08:55;3.00;99.90
18225;DHT22;9237;48.590;8.854;2023-02-01T06:11:23;3.00;99.90
18225;DHT22;9237;48.590;8.854;2023-02-01T06:13:49;3.00;99.90
18225;DHT22;9237;48.590;8.854;2023-02-01T06:16:16;3.00;99.90
18225;DHT22;9237;48.590;8.854;2023-02-01T06:18:43;3.00;99.90
18225;DHT22;9237;48.590;8.854;2023-02-01T06:21:10;3.00;99.90
18225;DHT22;9237;48.590;8.854;2023-02-01T06:23:39;3.00;99.90
18225;DHT22;9237;48.590;8.854;2023-02-01T06:26:07;3.10;99.90
18225;DHT22;9237;48.590;8.854;2023-02-01T06:28:34;3.00;99.90
18225;DHT22;9237;48.590;8.854;2023-02-01T06:31:03;3.00;99.90
18225;DHT22;9237;48.590;8.854;2023-02-01T06:33:31;2.90;99.90
18225;DHT22;9237;48.590;8.854;2023-02-01T06:35:59;2.90;99.90
18225;DHT22;9237;48.590;8.854;2023-02-01T06:38:26;2.90;99.90
18225;DHT22;9237;48.590;8.854;2023-02-01T06:40:54;2.90;99.90
18225;DHT22;9237;48.590;8.854;2023-02-01T06:43:22;2.90;99.90
18225;DHT22;9237;48.590;8.854;2023-02-01T06:45:49;2.90;99.90
18225;DHT22;9237;48.590;8.854;2023-02-01T06:48:18;2.90;99.90
18225;DHT22;9237;48.590;8.854;2023-02-01T06:50:45;2.90;99.90
18225;DHT22;9237;48.590;8.854;2023-02-01T06:53:12;2.80;99.90
18225;DHT22;9237;48.590;8.854;2023-02-01T06:55:38;2.80;99.90
18225;DHT22;9237;48.590;8.854;2023-02-01T06:58:05;2.90;99.90
18225;DHT22;9237;48.590;8.854;2023-02-01T07:00:34;3.00;99.90
18225;DHT22;9237;48.590;8.854;2023-02-01T07:03:01;3.10;99.90
18225;DHT22;9237;48.590;8.854;2023-02-01T07:05:28;3.10;99.90
18225;DHT22;9237;48.590;8.854;2023-02-01T07:07:55;3.10;99.90
18225;DHT22;9237;48.590;8.854;2023-02-01T07:10:23;3.10;99.90
18225;DHT22;9237;48.590;8.854;2023-02-01T07:12:50;3.30;99.90
18225;DHT22;9237;48.590;8.854;2023-02-01T07:15:17;3.30;99.90
18225;DHT22;9237;48.590;8.854;2023-02-01T07:17:45;3.40;99.90
18225;DHT22;9237;48.590;8.854;2023-02-01T07:20:13;3.30;99.90
18225;DHT22;9237;48.590;8.854;2023-02-01T07:22:39;3.30;99.90
18225;DHT22;9237;48.590;8.854;2023-02-01T07:25:07;3.20;99.90
18225;DHT22;9237;48.590;8.854;2023-02-01T07:27:34;3.20;99.90
18225;DHT22;9237;48.590;8.854;2023-02-01T07:30:01;3.20;99.90
18225;DHT22;9237;48.590;8.854;2023-02-01T07:32:28;3.20;99.90
18225;DHT22;9237;48.590;8.854;2023-02-01T07:34:57;3.20;99.90
18225;DHT22;9237;48.590;8.854;2023-02-01T07:37:24;3.20;99.90
18225;DHT22;9237;48.590;8.854;2023-02-01T07:39:51;3.20;99.90
18225;DHT22;9237;48.590;8.854;2023-02-01T07:42:18;3.20;99.90
18225;DHT22;9237;48.590;8.854;2023-02-01T07:44:44;3.30;99.90
18225;DHT22;9237;48.590;8.854;2023-02-01T07:47:11;3.30;99.90
18225;DHT22;9237;48.590;8.854;2023-02-01T07:49:38;3.30;99.90
18225;DHT22;9237;48.590;8.854;2023-02-01T07:52:06;3.40;99.90
18225;DHT22;9237;48.590;8.854;2023-02-01T07:54:33;3.40;99.90
18225;DHT22;9237;48.590;8.854;2023-02-01T07:57:00;3.50;99.90
18225;DHT22;9237;48.590;8.854;2023-02-01T07:59:27;3.60;99.90
18225;DHT22;9237;48.590;8.854;2023-02-01T08:01:54;3.60;99.90
18225;DHT22;9237;48.590;8.854;2023-02-01T08:04:19;3.70;99.90
18225;DHT22;9237;48.590;8.854;2023-02-01T08:06:46;3.80;99.90
18225;DHT22;9237;48.590;8.854;2023-02-01T08:09:14;3.90;99.90
18225;DHT22;9237;48.590;8.854;2023-02-01T08:11:41;4.00;99.90
18225;DHT22;9237;48.590;8.854;2023-02-01T08:14:08;4.10;99.90
18225;DHT22;9237;48.590;8.854;2023-02-01T08:16:35;4.10;99.90
18225;DHT22;9237;48.590;8.854;2023-02-01T08:19:03;4.10;99.90
18225;DHT22;9237;48.590;8.854;2023-02-01T08:21:30;4.20;99.90
18225;DHT22;9237;48.590;8.854;2023-02-01T08:24:03;4.30;99.90
18225;DHT22;9237;48.590;8.854;2023-02-01T08:26:32;4.40;99.90
18225;DHT22;9237;48.590;8.854;2023-02-01T08:29:00;4.40;99.90
18225;DHT22;9237;48.590;8.854;2023-02-01T08:31:28;4.40;99.90
18225;DHT22;9237;48.590;8.854;2023-02-01T08:33:57;4.40;99.90
18225;DHT22;9237;48.590;8.854;2023-02-01T08:36:25;4.50;99.90
18225;DHT22;9237;48.590;8.854;2023-02-01T08:38:53;4.60;99.90
18225;DHT22;9237;48.590;8.854;2023-02-01T08:41:21;4.60;99.90
18225;DHT22;9237;48.590;8.854;2023-02-01T08:43:50;4.60;99.90
18225;DHT22;9237;48.590;8.854;2023-02-01T08:46:17;4.60;99.90
18225;DHT22;9237;48.590;8.854;2023-02-01T08:48:45;4.70;99.90
18225;DHT22;9237;48.590;8.854;2023-02-01T08:51:14;4.70;99.90
18225;DHT22;9237;48.590;8.854;2023-02-01T08:53:41;4.70;99.90
18225;DHT22;9237;48.590;8.854;2023-02-01T08:56:09;4.70;99.90
18225;DHT22;9237;48.590;8.854;2023-02-01T08:58:36;4.70;99.90
18225;DHT22;9237;48.590;8.854;2023-02-01T09:01:05;4.60;99.90
18225;DHT22;9237;48.590;8.854;2023-02-01T09:03:32;4.70;99.90
18225;DHT22;9237;48.590;8.854;2023-02-01T09:06:00;4.60;99.90
18225;DHT22;9237;48.590;8.854;2023-02-01T09:08:27;4.60;99.90
18225;DHT22;9237;48.590;8.854;2023-02-01T09:10:58;4.60;99.90
18225;DHT22;9237;48.590;8.854;2023-02-01T09:13:25;4.70;99.90
18225;DHT22;9237;48.590;8.854;2023-02-01T09:15:52;4.80;99.90
18225;DHT22;9237;48.590;8.854;2023-02-01T09:18:21;4.70;99.90
18225;DHT22;9237;48.590;8.854;2023-02-01T09:20:47;4.70;99.90
18225;DHT22;9237;48.590;8.854;2023-02-01T09:23:14;4.70;99.90
18225;DHT22;9237;48.590;8.854;2023-02-01T09:25:41;4.70;99.90
18225;DHT22;9237;48.590;8.854;2023-02-01T09:28:08;4.70;99.90
18225;DHT22;9237;48.590;8.854;2023-02-01T09:30:35;4.70;99.90
18225;DHT22;9237;48.590;8.854;2023-02-01T09:33:03;4.80;99.90
18225;DHT22;9237;48.590;8.854;2023-02-01T09:35:32;4.70;99.90
18225;DHT22;9237;48.590;8.854;2023-02-01T09:37:58;4.80;99.90
18225;DHT22;9237;48.590;8.854;2023-02-01T09:40:25;4.70;99.90
18225;DHT22;9237;48.590;8.854;2023-02-01T09:43:12;4.80;99.90
18225;DHT22;9237;48.590;8.854;2023-02-01T09:45:46;4.80;99.90
18225;DHT22;9237;48.590;8.854;2023-02-01T09:48:16;4.90;99.90
18225;DHT22;9237;48.590;8.854;2023-02-01T09:50:49;5.00;99.90
18225;DHT22;9237;48.590;8.854;2023-02-01T09:53:21;5.10;99.90
18225;DHT22;9237;48.590;8.854;2023-02-01T09:55:50;5.20;99.90
18225;DHT22;9237;48.590;8.854;2023-02-01T09:58:22;5.20;99.90
18225;DHT22;9237;48.590;8.854;2023-02-01T10:00:54;5.20;99.90
18225;DHT22;9237;48.590;8.854;2023-02-01T10:03:23;5.20;99.90
18225;DHT22;9237;48.590;8.854;2023-02-01T10:06:10;5.30;99.90
18225;DHT22;9237;48.590;8.854;2023-02-01T10:11:45;5.40;99.90
18225;DHT22;9237;48.590;8.854;2023-02-01T10:14:30;5.40;99.90
18225;DHT22;9237;48.590;8.854;2023-02-01T10:17:12;5.60;99.90
18225;DHT22;9237;48.590;8.854;2023-02-01T10:19:52;5.50;99.90
18225;DHT22;9237;48.590;8.854;2023-02-01T10:22:33;5.60;99.90
18225;DHT22;9237;48.590;8.854;2023-02-01T10:25:06;5.70;99.90
18225;DHT22;9237;48.590;8.854;2023-02-01T10:27:35;5.70;99.90
18225;DHT22;9237;48.590;8.854;2023-02-01T10:30:06;5.90;99.90
18225;DHT22;9237;48.590;8.854;2023-02-01T10:32:41;5.90;99.90
18225;DHT22;9237;48.590;8.854;2023-02-01T10:35:13;5.80;99.90
18225;DHT22;9237;48.590;8.854;2023-02-01T10:37:43;5.80;99.90
18225;DHT22;9237;48.590;8.854;2023-02-01T10:40:16;5.80;99.90
18225;DHT22;9237;48.590;8.854;2023-02-01T10:42:45;5.80;99.90
18225;DHT22;9237;48.590;8.854;2023-02-01T10:45:16;5.70;99.90
18225;DHT22;9237;48.590;8.854;2023-02-01T10:47:43;5.70;99.90
18225;DHT22;9237;48.590;8.854;2023-02-01T10:50:16;5.80;99.90
18225;DHT22;9237;48.590;8.854;2023-02-01T10:52:49;5.80;99.90
18225;DHT22;9237;48.590;8.854;2023-02-01T10:55:30;5.80;99.90
18225;DHT22;9237;48.590;8.854;2023-02-01T10:57:59;5.80;99.90
18225;DHT22;9237;48.590;8.854;2023-02-01T11:00:27;5.80;99.90
18225;DHT22;9237;48.590;8.854;2023-02-01T11:02:54;5.80;99.90
18225;DHT22;9237;48.590;8.854;2023-02-01T11:05:22;5.70;99.90
18225;DHT22;9237;48.590;8.854;2023-02-01T11:07:53;5.80;99.90
18225;DHT22;9237;48.590;8.854;2023-02-01T11:10:36;5.80;99.90
18225;DHT22;9237;48.590;8.854;2023-02-01T11:13:04;5.80;99.90
18225;DHT22;9237;48.590;8.854;2023-02-01T11:15:31;6.00;99.90
18225;DHT22;9237;48.590;8.854;2023-02-01T11:18:14;5.80;99.90
18225;DHT22;9237;48.590;8.854;2023-02-01T11:20:42;5.70;99.90
18225;DHT22;9237;48.590;8.854;2023-02-01T11:23:15;5.60;99.90
18225;DHT22;9237;48.590;8.854;2023-02-01T11:25:48;5.60;99.90
18225;DHT22;9237;48.590;8.854;2023-02-01T11:28:16;5.50;99.90
18225;DHT22;9237;48.590;8.854;2023-02-01T11:30:45;5.60;99.90
18225;DHT22;9237;48.590;8.854;2023-02-01T11:33:15;5.70;99.90
18225;DHT22;9237;48.590;8.854;2023-02-01T11:35:43;5.60;99.90
18225;DHT22;9237;48.590;8.854;2023-02-01T11:38:17;5.60;99.90
18225;DHT22;9237;48.590;8.854;2023-02-01T11:40:46;5.80;99.90
18225;DHT22;9237;48.590;8.854;2023-02-01T11:43:16;5.70;99.90
18225;DHT22;9237;48.590;8.854;2023-02-01T11:45:54;5.80;99.90
18225;DHT22;9237;48.590;8.854;2023-02-01T11:48:24;5.90;99.90
18225;DHT22;9237;48.590;8.854;2023-02-01T11:51:03;5.90;99.90
18225;DHT22;9237;48.590;8.854;2023-02-01T11:53:44;6.00;99.90
18225;DHT22;9237;48.590;8.854;2023-02-01T11:56:19;5.90;99.90
18225;DHT22;9237;48.590;8.854;2023-02-01T11:58:59;5.90;99.90
18225;DHT22;9237;48.590;8.854;2023-02-01T12:01:42;5.90;99.90
18225;DHT22;9237;48.590;8.854;2023-02-01T12:04:50;5.80;99.90
18225;DHT22;9237;48.590;8.854;2023-02-01T12:07:25;5.80;99.90
18225;DHT22;9237;48.590;8.854;2023-02-01T12:10:04;5.70;99.90
18225;DHT22;9237;48.590;8.854;2023-02-01T12:12:41;5.70;99.90
18225;DHT22;9237;48.590;8.854;2023-02-01T12:15:19;5.70;99.90
18225;DHT22;9237;48.590;8.854;2023-02-01T12:18:10;5.70;99.90
18225;DHT22;9237;48.590;8.854;2023-02-01T12:21:06;5.80;99.90
18225;DHT22;9237;48.590;8.854;2023-02-01T12:23:45;5.70;99.90
18225;DHT22;9237;48.590;8.854;2023-02-01T12:26:41;5.70;99.90
18225;DHT22;9237;48.590;8.854;2023-02-01T12:29:29;5.50;99.90
18225;DHT22;9237;48.590;8.854;2023-02-01T12:32:20;5.50;99.90
18225;DHT22;9237;48.590;8.854;2023-02-01T12:35:15;5.40;99.90
18225;DHT22;9237;48.590;8.854;2023-02-01T12:37:54;5.50;99.90
18225;DHT22;9237;48.590;8.854;2023-02-01T12:40:33;5.50;99.90
18225;DHT22;9237;48.590;8.854;2023-02-01T12:43:11;5.50;99.90
18225;DHT22;9237;48.590;8.854;2023-02-01T12:45:42;5.50;99.90
18225;DHT22;9237;48.590;8.854;2023-02-01T12:48:23;5.50;99.90
18225;DHT22;9237;48.590;8.854;2023-02-01T12:50:54;5.40;99.90
18225;DHT22;9237;48.590;8.854;2023-02-01T12:53:26;5.30;99.90
18225;DHT22;9237;48.590;8.854;2023-02-01T12:55:55;5.30;99.90
18225;DHT22;9237;48.590;8.854;2023-02-01T12:58:29;5.30;99.90
18225;DHT22;9237;48.590;8.854;2023-02-01T13:01:01;5.30;99.90
18225;DHT22;9237;48.590;8.854;2023-02-01T13:03:35;5.30;99.90
18225;DHT22;9237;48.590;8.854;2023-02-01T13:06:07;5.20;99.90
18225;DHT22;9237;48.590;8.854;2023-02-01T13:08:41;5.40;99.90
18225;DHT22;9237;48.590;8.854;2023-02-01T13:11:13;5.40;99.90
18225;DHT22;9237;48.590;8.854;2023-02-01T13:13:52;5.30;99.90
18225;DHT22;9237;48.590;8.854;2023-02-01T13:16:24;5.30;99.90
18225;DHT22;9237;48.590;8.854;2023-02-01T13:19:16;5.20;99.90
18225;DHT22;9237;48.590;8.854;2023-02-01T13:21:46;5.20;99.90
18225;DHT22;9237;48.590;8.854;2023-02-01T13:24:26;5.20;99.90
18225;DHT22;9237;48.590;8.854;2023-02-01T13:26:55;5.20;99.90
18225;DHT22;9237;48.590;8.854;2023-02-01T13:29:24;5.10;99.90
18225;DHT22;9237;48.590;8.854;2023-02-01T13:32:01;5.10;99.90
18225;DHT22;9237;48.590;8.854;2023-02-01T13:34:45;5.00;99.90
18225;DHT22;9237;48.590;8.854;2023-02-01T13:37:27;5.10;99.90
18225;DHT22;9237;48.590;8.854;2023-02-01T13:40:05;5.10;99.90
18225;DHT22;9237;48.590;8.854;2023-02-01T13:42:45;5.20;99.90
18225;DHT22;9237;48.590;8.854;2023-02-01T13:45:17;5.30;99.90
18225;DHT22;9237;48.590;8.854;2023-02-01T13:47:47;5.30;99.90
18225;DHT22;9237;48.590;8.854;2023-02-01T13:50:22;5.20;99.90
18225;DHT22;9237;48.590;8.854;2023-02-01T13:52:55;5.20;99.90
18225;DHT22;9237;48.590;8.854;2023-02-01T13:55:31;5.30;99.90
18225;DHT22;9237;48.590;8.854;2023-02-01T13:58:15;5.20;99.90
18225;DHT22;9237;48.590;8.854;2023-02-01T14:00:46;5.20;99.90
18225;DHT22;9237;48.590;8.854;2023-02-01T14:03:21;5.20;99.90
18225;DHT22;9237;48.590;8.854;2023-02-01T14:06:05;5.20;99.90
18225;DHT22;9237;48.590;8.854;2023-02-01T14:09:05;5.20;99.90
18225;DHT22;9237;48.590;8.854;2023-02-01T14:11:39;5.30;99.90
18225;DHT22;9237;48.590;8.854;2023-02-01T14:17:35;5.40;99.90
18225;DHT22;9237;48.590;8.854;2023-02-01T14:23:17;5.60;99.90
18225;DHT22;9237;48.590;8.854;2023-02-01T14:25:45;5.70;99.90
18225;DHT22;9237;48.590;8.854;2023-02-01T14:28:23;5.70;99.90
18225;DHT22;9237;48.590;8.854;2023-02-01T14:30:51;5.70;99.90
18225;DHT22;9237;48.590;8.854;2023-02-01T14:33:23;5.70;99.90
18225;DHT22;9237;48.590;8.854;2023-02-01T14:36:07;5.70;99.90
18225;DHT22;9237;48.590;8.854;2023-02-01T14:38:36;5.70;99.90
18225;DHT22;9237;48.590;8.854;2023-02-01T14:41:29;5.80;99.90
18225;DHT22;9237;48.590;8.854;2023-02-01T14:44:23;5.70;99.90
18225;DHT22;9237;48.590;8.854;2023-02-01T14:47:09;5.60;99.90
18225;DHT22;9237;48.590;8.854;2023-02-01T14:49:47;5.70;99.90
18225;DHT22;9237;48.590;8.854;2023-02-01T14:52:18;5.60;99.90
18225;DHT22;9237;48.590;8.854;2023-02-01T14:54:51;5.60;99.90
18225;DHT22;9237;48.590;8.854;2023-02-01T14:57:21;5.50;99.90
18225;DHT22;9237;48.590;8.854;2023-02-01T14:59:55;5.50;99.90
18225;DHT22;9237;48.590;8.854;2023-02-01T15:02:27;5.40;99.90
18225;DHT22;9237;48.590;8.854;2023-02-01T15:04:56;5.40;99.90
18225;DHT22;9237;48.590;8.854;2023-02-01T15:07:24;5.40;99.90
18225;DHT22;9237;48.590;8.854;2023-02-01T15:09:54;5.40;99.90
18225;DHT22;9237;48.590;8.854;2023-02-01T15:12:25;5.40;99.90
18225;DHT22;9237;48.590;8.854;2023-02-01T15:15:20;5.40;99.90
18225;DHT22;9237;48.590;8.854;2023-02-01T15:17:53;5.40;99.90
18225;DHT22;9237;48.590;8.854;2023-02-01T15:20:22;5.40;99.90
18225;DHT22;9237;48.590;8.854;2023-02-01T15:22:55;5.30;99.90
18225;DHT22;9237;48.590;8.854;2023-02-01T15:25:24;5.30;99.90
18225;DHT22;9237;48.590;8.854;2023-02-01T15:27:52;5.20;99.90
18225;DHT22;9237;48.590;8.854;2023-02-01T15:30:21;5.20;99.90
18225;DHT22;9237;48.590;8.854;2023-02-01T15:32:50;5.30;99.90
18225;DHT22;9237;48.590;8.854;2023-02-01T15:35:39;5.20;99.90
18225;DHT22;9237;48.590;8.854;2023-02-01T15:38:32;5.20;99.90
18225;DHT22;9237;48.590;8.854;2023-02-01T15:41:02;5.20;99.90
18225;DHT22;9237;48.590;8.854;2023-02-01T15:43:33;5.20;99.90
18225;DHT22;9237;48.590;8.854;2023-02-01T15:46:03;5.20;99.90
18225;DHT22;9237;48.590;8.854;2023-02-01T15:48:34;5.20;99.90
18225;DHT22;9237;48.590;8.854;2023-02-01T15:51:03;5.20;99.90
18225;DHT22;9237;48.590;8.854;2023-02-01T15:53:30;5.20;99.90
18225;DHT22;9237;48.590;8.854;2023-02-01T15:56:00;5.20;99.90
18225;DHT22;9237;48.590;8.854;2023-02-01T15:58:28;5.20;99.90
18225;DHT22;9237;48.590;8.854;2023-02-01T16:00:59;5.10;99.90
18225;DHT22;9237;48.590;8.854;2023-02-01T16:03:33;5.20;99.90
18225;DHT22;9237;48.590;8.854;2023-02-01T16:06:05;5.10;99.90
18225;DHT22;9237;48.590;8.854;2023-02-01T16:08:33;5.10;99.90
18225;DHT22;9237;48.590;8.854;2023-02-01T16:11:10;5.00;99.90
18225;DHT22;9237;48.590;8.854;2023-02-01T16:13:40;5.00;99.90
18225;DHT22;9237;48.590;8.854;2023-02-01T16:16:08;5.00;99.90
18225;DHT22;9237;48.590;8.854;2023-02-01T16:18:39;4.90;99.90
18225;DHT22;9237;48.590;8.854;2023-02-01T16:21:07;5.00;99.90
18225;DHT22;9237;48.590;8.854;2023-02-01T16:23:34;4.90;99.90
18225;DHT22;9237;48.590;8.854;2023-02-01T16:26:01;4.80;99.90
18225;DHT22;9237;48.590;8.854;2023-02-01T16:28:28;4.70;99.90
18225;DHT22;9237;48.590;8.854;2023-02-01T16:30:55;4.70;99.90
18225;DHT22;9237;48.590;8.854;2023-02-01T16:33:23;4.60;99.90
18225;DHT22;9237;48.590;8.854;2023-02-01T16:35:51;4.50;99.90
18225;DHT22;9237;48.590;8.854;2023-02-01T16:38:19;4.50;99.90
18225;DHT22;9237;48.590;8.854;2023-02-01T16:40:48;4.60;99.90
18225;DHT22;9237;48.590;8.854;2023-02-01T16:43:17;4.60;99.90